Time;durP1;ratioP1;P1;durP2;ratioP2;P2;SDS_P1;SDS_P2;PMS_P1;PMS_P2;Temp;Humidity;BMP_temperature;BMP_pressure;BME280_temperature;BME280_humidity;BME280_pressure;Samples;Min_cycle;Max_cycle;Signal;HPM_P1;HPM_P2
2022/03/23 00:00:05;;;;;;;10.77;7.63;;;13.50;57.80;;;;;;5061242;28;20017;-47
2022/03/23 00:02:31;;;;;;;11.05;7.00;;;13.50;58.50;;;;;;5061205;28;20060;-46
2022/03/23 00:04:57;;;;;;;10.75;7.15;;;13.50;57.20;;;;;;5061008;28;20032;-46
2022/03/23 00:07:23;;;;;;;9.57;7.20;;;13.50;56.70;;;;;;5061124;28;20029;-47
2022/03/23 00:09:49;;;;;;;9.57;6.88;;;13.50;57.40;;;;;;5060934;28;20017;-46
2022/03/23 00:12:15;;;;;;;9.75;6.75;;;13.50;56.80;;;;;;5060836;28;20373;-46
2022/03/23 00:14:42;;;;;;;11.63;7.15;;;13.50;56.80;;;;;;5061198;28;20027;-45
2022/03/23 00:17:08;;;;;;;10.30;6.78;;;13.50;57.50;;;;;;5060868;28;20060;-47
2022/03/23 00:19:34;;;;;;;10.90;6.78;;;13.50;57.10;;;;;;5060866;28;20480;-46
2022/03/23 00:22:00;;;;;;;10.68;6.60;;;13.50;56.50;;;;;;5060834;28;20021;-48
2022/03/23 00:24:26;;;;;;;8.90;6.45;;;13.50;57.00;;;;;;5060228;28;20060;-47
2022/03/23 00:26:52;;;;;;;12.65;6.97;;;13.50;57.00;;;;;;5060788;28;20021;-45
2022/03/23 00:29:18;;;;;;;11.73;7.22;;;13.50;56.20;;;;;;5059125;28;20496;-46
2022/03/23 00:31:44;;;;;;;9.93;6.15;;;13.50;56.90;;;;;;5060681;28;20111;-47
2022/03/23 00:34:10;;;;;;;10.20;6.63;;;13.50;56.60;;;;;;5060905;28;20028;-47
2022/03/23 00:36:36;;;;;;;10.32;6.30;;;13.50;56.60;;;;;;5060504;28;20079;-46
2022/03/23 00:39:02;;;;;;;12.38;7.28;;;13.50;57.00;;;;;;5060168;28;20476;-49
2022/03/23 00:41:28;;;;;;;9.93;6.47;;;13.50;56.30;;;;;;5060289;28;20094;-47
2022/03/23 00:43:54;;;;;;;9.68;6.53;;;13.60;56.50;;;;;;5060446;28;20025;-46
2022/03/23 00:46:20;;;;;;;14.70;7.30;;;13.60;56.20;;;;;;5060365;28;20108;-45
2022/03/23 00:48:47;;;;;;;9.77;6.43;;;13.60;56.90;;;;;;5059969;28;20025;-46
2022/03/23 00:51:13;;;;;;;10.75;6.70;;;13.60;56.70;;;;;;5060286;28;20029;-46
2022/03/23 00:53:38;;;;;;;11.13;6.75;;;13.60;55.90;;;;;;5059896;28;20491;-46
2022/03/23 00:56:04;;;;;;;9.68;6.82;;;13.60;56.40;;;;;;5060261;28;20025;-45
2022/03/23 00:58:30;;;;;;;10.07;6.60;;;13.60;56.80;;;;;;5060095;28;20056;-46
2022/03/23 01:00:56;;;;;;;10.95;6.32;;;13.60;56.80;;;;;;5060154;28;20021;-47
2022/03/23 01:03:22;;;;;;;12.27;6.90;;;13.60;56.70;;;;;;5059819;28;20064;-45
2022/03/23 01:05:49;;;;;;;12.40;6.93;;;13.60;56.90;;;;;;5060256;28;20036;-47
2022/03/23 01:08:15;;;;;;;12.02;6.85;;;13.60;57.00;;;;;;5059983;28;20025;-48
2022/03/23 01:10:42;;;;;;;12.05;6.90;;;13.60;56.50;;;;;;5060186;28;20059;-47
2022/03/23 01:13:07;;;;;;;10.40;7.20;;;13.60;57.10;;;;;;5059856;28;20100;-46
2022/03/23 01:15:33;;;;;;;9.52;6.88;;;13.60;56.90;;;;;;5059926;28;20047;-46
2022/03/23 01:17:59;;;;;;;10.27;6.57;;;13.60;56.60;;;;;;5059695;28;20021;-47
2022/03/23 01:20:25;;;;;;;10.90;7.00;;;13.60;57.90;;;;;;5059593;28;20091;-47
2022/03/23 01:22:51;;;;;;;11.15;6.82;;;13.60;57.30;;;;;;5059899;28;20052;-46
2022/03/23 01:25:18;;;;;;;13.45;6.70;;;13.60;57.00;;;;;;5059415;28;20045;-46
2022/03/23 01:27:44;;;;;;;11.52;7.07;;;13.60;57.30;;;;;;5059614;28;20033;-46
2022/03/23 01:30:12;;;;;;;11.07;6.85;;;13.50;58.10;;;;;;5059428;28;20099;-47
2022/03/23 01:32:38;;;;;;;11.95;6.95;;;13.50;57.80;;;;;;5059263;28;20071;-48
2022/03/23 01:35:05;;;;;;;13.43;7.43;;;13.50;57.60;;;;;;5059326;28;20025;-46
2022/03/23 01:37:31;;;;;;;9.55;6.75;;;13.50;57.50;;;;;;5059091;28;20095;-46
2022/03/23 01:39:58;;;;;;;11.73;6.95;;;13.50;57.00;;;;;;5057890;28;20063;-46
2022/03/23 01:42:26;;;;;;;12.48;7.25;;;13.40;56.90;;;;;;5059307;28;20025;-46
2022/03/23 01:44:52;;;;;;;11.35;6.97;;;13.40;57.20;;;;;;5058922;28;20461;-45
2022/03/23 01:47:18;;;;;;;10.23;6.90;;;13.30;57.30;;;;;;5059447;28;20068;-45
2022/03/23 01:49:45;;;;;;;11.88;7.15;;;13.30;57.70;;;;;;5059316;28;20039;-48
2022/03/23 01:52:14;;;;;;;11.23;7.18;;;13.20;57.40;;;;;;5058899;28;20498;-46
2022/03/23 01:54:41;;;;;;;15.35;7.50;;;13.20;58.30;;;;;;5058863;28;20033;-45
2022/03/23 01:57:08;;;;;;;11.88;7.40;;;13.10;57.80;;;;;;5058787;28;20577;-46
2022/03/23 01:59:35;;;;;;;10.77;6.75;;;13.10;58.20;;;;;;5058806;28;20017;-49
2022/03/23 02:02:02;;;;;;;12.45;6.95;;;13.00;58.00;;;;;;5057956;28;20025;-46
2022/03/23 02:04:28;;;;;;;12.20;7.07;;;13.00;58.40;;;;;;5058354;28;20079;-47
2022/03/23 02:06:54;;;;;;;11.95;7.63;;;13.00;59.80;;;;;;5058708;28;20021;-47
2022/03/23 02:09:20;;;;;;;8.80;6.75;;;12.90;58.90;;;;;;5058770;28;20539;-47
2022/03/23 02:11:49;;;;;;;12.82;7.68;;;12.90;58.30;;;;;;5058754;28;20044;-46
2022/03/23 02:14:15;;;;;;;13.18;7.07;;;12.90;59.30;;;;;;5058475;28;20036;-46
2022/03/23 02:16:46;;;;;;;14.75;7.03;;;12.80;59.60;;;;;;5058427;28;20045;-45
2022/03/23 02:19:13;;;;;;;12.88;7.53;;;12.80;60.30;;;;;;5058951;28;20059;-46
2022/03/23 02:21:44;;;;;;;11.77;7.50;;;12.80;59.90;;;;;;5059024;28;20025;-46
2022/03/23 02:24:11;;;;;;;12.52;7.82;;;12.80;59.50;;;;;;5058190;28;20049;-46
2022/03/23 02:26:37;;;;;;;12.00;7.47;;;12.80;60.10;;;;;;5058302;28;20107;-45
2022/03/23 02:29:04;;;;;;;12.52;7.57;;;12.80;61.30;;;;;;5058334;28;20078;-45
2022/03/23 02:31:31;;;;;;;11.00;7.18;;;12.80;59.90;;;;;;5058437;28;20035;-46
2022/03/23 02:33:57;;;;;;;11.80;7.50;;;12.80;60.50;;;;;;5058246;28;20025;-46
2022/03/23 02:36:23;;;;;;;13.00;7.68;;;12.70;60.80;;;;;;5058526;28;20090;-49
2022/03/23 02:38:49;;;;;;;13.57;7.78;;;12.80;61.10;;;;;;5058272;28;20028;-46
2022/03/23 02:41:15;;;;;;;11.10;7.32;;;12.70;61.20;;;;;;5058264;28;20082;-48
2022/03/23 02:43:41;;;;;;;14.38;7.45;;;12.80;60.80;;;;;;5058173;28;20056;-47
2022/03/23 02:46:15;;;;;;;13.20;7.72;;;12.70;60.40;;;;;;5058211;28;20029;-46
2022/03/23 02:48:41;;;;;;;12.00;7.70;;;12.70;60.80;;;;;;5058039;28;20054;-46
2022/03/23 02:51:07;;;;;;;11.57;7.38;;;12.70;61.30;;;;;;5056601;28;20037;-45
2022/03/23 03:02:22;;;;;;;12.32;7.72;;;12.70;60.80;;;;;;5057987;28;20117;-46
2022/03/23 03:04:51;;;;;;;15.90;8.00;;;12.70;61.00;;;;;;5058071;28;20029;-46
2022/03/23 03:07:18;;;;;;;18.42;8.30;;;12.70;61.10;;;;;;5057715;28;20033;-45
2022/03/23 03:09:44;;;;;;;14.13;7.90;;;12.70;61.40;;;;;;5057673;28;20076;-46
2022/03/23 03:12:11;;;;;;;11.00;7.65;;;12.70;61.50;;;;;;5057794;28;20086;-46
2022/03/23 03:14:40;;;;;;;13.65;8.18;;;12.60;61.00;;;;;;5057524;28;20408;-46
2022/03/23 03:17:07;;;;;;;17.05;8.40;;;12.60;61.20;;;;;;5057635;28;20396;-45
2022/03/23 03:19:35;;;;;;;14.07;7.75;;;12.60;62.80;;;;;;5057493;28;20051;-48
2022/03/23 03:22:01;;;;;;;16.17;8.65;;;12.60;62.40;;;;;;5057508;28;20043;-47
2022/03/23 03:24:27;;;;;;;13.77;8.25;;;12.50;61.30;;;;;;5057287;28;20040;-47
2022/03/23 03:26:54;;;;;;;12.60;7.72;;;12.50;61.30;;;;;;5057406;28;20404;-46
2022/03/23 03:29:20;;;;;;;17.63;8.80;;;12.50;61.50;;;;;;5057912;28;20380;-47
2022/03/23 03:31:46;;;;;;;13.10;7.47;;;12.40;61.80;;;;;;5057475;28;20052;-46
2022/03/23 03:34:12;;;;;;;13.20;8.38;;;12.40;62.10;;;;;;5057717;28;20017;-47
2022/03/23 03:36:38;;;;;;;14.52;7.80;;;12.30;62.00;;;;;;5057304;28;20029;-46
2022/03/23 03:39:04;;;;;;;14.73;8.35;;;12.20;62.70;;;;;;5057562;28;20017;-49
2022/03/23 03:41:31;;;;;;;15.55;8.27;;;12.20;61.90;;;;;;5057524;28;20028;-48
2022/03/23 03:43:57;;;;;;;17.00;8.35;;;12.20;62.30;;;;;;5057512;28;20036;-47
2022/03/23 03:46:24;;;;;;;13.73;8.13;;;12.10;62.80;;;;;;5057495;28;20021;-50
2022/03/23 03:48:50;;;;;;;15.30;8.63;;;12.10;61.90;;;;;;5057205;28;20033;-46
2022/03/23 03:51:16;;;;;;;13.55;7.97;;;12.00;61.70;;;;;;5057731;28;20108;-48
2022/03/23 03:53:42;;;;;;;15.93;8.10;;;12.00;61.90;;;;;;5055956;28;20539;-47
2022/03/23 03:56:11;;;;;;;15.13;8.60;;;12.00;62.50;;;;;;5057242;28;20036;-47
2022/03/23 03:58:38;;;;;;;16.25;9.30;;;11.90;62.60;;;;;;5057367;28;20430;-47
2022/03/23 04:01:04;;;;;;;15.27;8.48;;;11.90;63.00;;;;;;5057182;28;20393;-47
2022/03/23 04:03:30;;;;;;;16.23;9.00;;;11.90;62.50;;;;;;5057205;28;20105;-46
2022/03/23 04:05:55;;;;;;;16.33;9.38;;;11.90;62.80;;;;;;5057069;28;20053;-47
2022/03/23 04:08:21;;;;;;;13.95;8.48;;;11.90;63.30;;;;;;5057394;28;20044;-46
2022/03/23 04:10:47;;;;;;;15.93;8.55;;;11.80;63.20;;;;;;5057492;28;20037;-46
2022/03/23 04:13:13;;;;;;;15.10;8.60;;;11.80;62.50;;;;;;5056984;28;20025;-46
2022/03/23 04:15:38;;;;;;;14.20;9.15;;;11.80;62.50;;;;;;5057029;28;20473;-46
2022/03/23 04:18:05;;;;;;;13.82;7.93;;;11.80;61.80;;;;;;5056944;28;20025;-46
2022/03/23 04:20:31;;;;;;;15.55;9.30;;;11.80;62.60;;;;;;5057153;28;20089;-46
2022/03/23 04:22:58;;;;;;;15.75;7.90;;;11.80;63.30;;;;;;5056953;28;20456;-47
2022/03/23 04:25:23;;;;;;;17.48;8.98;;;11.80;62.70;;;;;;5056781;28;20053;-46
2022/03/23 04:27:54;;;;;;;13.85;9.10;;;11.80;62.20;;;;;;5057663;28;20079;-49
2022/03/23 04:30:22;;;;;;;14.32;8.32;;;11.80;62.80;;;;;;5060693;28;20036;-46
2022/03/23 04:32:50;;;;;;;13.82;8.43;;;11.80;62.20;;;;;;5060456;28;20067;-47
2022/03/23 04:35:16;;;;;;;15.88;8.98;;;11.80;63.20;;;;;;5060871;28;20082;-46
2022/03/23 04:37:43;;;;;;;12.32;8.07;;;11.80;63.10;;;;;;5060517;28;20113;-47
2022/03/23 04:40:11;;;;;;;12.77;8.43;;;11.80;62.50;;;;;;5060170;28;20025;-48
2022/03/23 04:42:37;;;;;;;13.15;7.70;;;11.70;62.40;;;;;;5060496;28;20405;-46
2022/03/23 04:45:05;;;;;;;15.73;8.27;;;11.70;62.60;;;;;;5060395;28;20021;-45
2022/03/23 04:47:30;;;;;;;12.75;8.93;;;11.70;62.40;;;;;;5060564;28;20021;-47
2022/03/23 04:49:56;;;;;;;14.65;8.25;;;11.70;61.80;;;;;;5060393;28;20028;-47
2022/03/23 04:52:22;;;;;;;14.82;8.75;;;11.60;62.30;;;;;;5060280;28;20029;-46
2022/03/23 04:54:48;;;;;;;13.02;8.27;;;11.60;62.00;;;;;;5060082;28;20029;-46
2022/03/23 04:57:14;;;;;;;11.63;7.85;;;11.60;62.00;;;;;;5060134;28;20556;-48
2022/03/23 04:59:39;;;;;;;13.43;8.63;;;11.60;61.70;;;;;;5060117;28;20021;-46
2022/03/23 05:02:05;;;;;;;14.10;9.27;;;11.70;62.20;;;;;;5060375;28;20590;-47
2022/03/23 05:04:31;;;;;;;12.40;7.93;;;11.60;61.70;;;;;;5060097;28;20385;-45
2022/03/23 05:06:57;;;;;;;14.82;8.50;;;11.70;62.10;;;;;;5059738;28;20040;-47
2022/03/23 05:09:23;;;;;;;16.00;8.38;;;11.70;62.20;;;;;;5059804;28;20366;-48
2022/03/23 05:11:49;;;;;;;13.20;8.40;;;11.70;62.10;;;;;;5059917;28;20040;-47
2022/03/23 05:14:15;;;;;;;13.18;8.10;;;11.70;61.90;;;;;;5059789;28;20020;-49
2022/03/23 05:16:42;;;;;;;14.52;7.70;;;11.70;61.90;;;;;;5058407;28;20029;-46
2022/03/23 05:19:07;;;;;;;13.48;8.38;;;11.80;62.10;;;;;;5059781;28;20048;-48
2022/03/23 05:21:33;;;;;;;15.55;7.97;;;11.80;62.00;;;;;;5059778;28;20032;-45
2022/03/23 05:23:59;;;;;;;13.32;8.40;;;11.80;61.50;;;;;;5059501;28;20024;-48
2022/03/23 05:26:25;;;;;;;14.20;8.27;;;11.80;61.60;;;;;;5059599;28;20032;-46
2022/03/23 05:28:50;;;;;;;13.65;7.95;;;11.80;61.80;;;;;;5059407;28;20489;-46
2022/03/23 05:31:16;;;;;;;13.57;8.63;;;11.80;61.70;;;;;;5059345;28;20031;-46
2022/03/23 05:33:42;;;;;;;12.90;8.23;;;11.80;61.60;;;;;;5059820;28;20076;-49
2022/03/23 05:36:08;;;;;;;11.57;8.05;;;11.80;61.70;;;;;;5059255;28;20115;-46
2022/03/23 05:38:34;;;;;;;12.90;8.50;;;11.80;61.60;;;;;;5059697;28;20068;-45
2022/03/23 05:41:00;;;;;;;12.05;8.15;;;11.80;61.50;;;;;;5058045;28;20025;-45
2022/03/23 05:43:26;;;;;;;14.50;7.75;;;11.80;61.30;;;;;;5059370;28;20013;-46
2022/03/23 05:45:51;;;;;;;13.55;7.65;;;11.80;61.40;;;;;;5059290;28;20029;-46
2022/03/23 05:48:17;;;;;;;11.90;7.78;;;11.80;61.60;;;;;;5059277;28;20480;-47
2022/03/23 05:50:43;;;;;;;11.32;8.13;;;11.80;61.60;;;;;;5059187;28;20381;-47
2022/03/23 05:53:09;;;;;;;10.07;7.82;;;11.80;61.40;;;;;;5059015;28;20384;-46
2022/03/23 05:55:36;;;;;;;12.15;8.35;;;11.80;61.80;;;;;;5058871;28;20506;-45
2022/03/23 05:58:03;;;;;;;10.70;8.00;;;11.80;62.00;;;;;;5058964;28;20079;-46
2022/03/23 06:00:30;;;;;;;14.82;8.63;;;11.80;61.70;;;;;;5058349;28;20443;-47
2022/03/23 06:02:56;;;;;;;12.80;8.50;;;11.80;61.30;;;;;;5058954;28;20032;-45
2022/03/23 06:05:22;;;;;;;11.45;7.55;;;11.70;61.30;;;;;;5059025;28;20028;-45
2022/03/23 06:07:47;;;;;;;13.23;8.35;;;11.70;61.40;;;;;;5058652;28;20017;-46
2022/03/23 06:10:13;;;;;;;11.40;8.45;;;11.70;61.10;;;;;;5058656;28;20021;-49
2022/03/23 06:12:39;;;;;;;13.95;8.50;;;11.70;61.10;;;;;;5058748;28;20101;-45
2022/03/23 06:15:08;;;;;;;12.32;8.77;;;11.60;61.10;;;;;;5058802;28;20452;-45
2022/03/23 06:17:35;;;;;;;12.73;8.70;;;11.60;60.90;;;;;;5058590;28;20056;-46
2022/03/23 06:20:02;;;;;;;12.90;8.65;;;11.50;60.80;;;;;;5058496;28;20040;-45
2022/03/23 06:22:28;;;;;;;14.20;9.13;;;11.40;61.10;;;;;;5058370;28;20021;-45
2022/03/23 06:24:53;;;;;;;12.05;8.07;;;11.40;60.80;;;;;;5058242;28;20055;-46
2022/03/23 06:27:19;;;;;;;12.90;8.20;;;11.30;60.80;;;;;;5058529;28;20025;-45
2022/03/23 06:29:45;;;;;;;12.85;8.57;;;11.20;61.20;;;;;;5058328;28;20051;-45
2022/03/23 06:32:12;;;;;;;11.85;8.63;;;11.20;61.40;;;;;;5056952;28;20638;-46
2022/03/23 06:34:38;;;;;;;13.98;8.93;;;11.10;61.20;;;;;;5058359;28;20031;-45
2022/03/23 06:37:04;;;;;;;11.25;8.32;;;11.10;61.10;;;;;;5058132;28;20028;-47
2022/03/23 06:39:31;;;;;;;11.90;8.15;;;11.00;60.90;;;;;;5058326;28;20139;-47
2022/03/23 06:41:57;;;;;;;12.13;7.95;;;11.00;61.70;;;;;;5058257;28;20052;-45
2022/03/23 06:44:23;;;;;;;11.32;7.88;;;10.90;61.50;;;;;;5058260;28;20029;-46
2022/03/23 06:46:49;;;;;;;16.42;10.05;;;10.90;61.60;;;;;;5058248;28;20063;-46
2022/03/23 06:49:16;;;;;;;18.30;11.90;;;10.90;61.90;;;;;;5057943;28;20028;-48
2022/03/23 06:51:42;;;;;;;14.93;10.45;;;10.90;61.80;;;;;;5057393;28;20029;-46
2022/03/23 06:54:08;;;;;;;13.73;9.43;;;10.80;61.80;;;;;;5057859;28;20496;-45
2022/03/23 06:56:34;;;;;;;13.77;9.25;;;10.80;61.70;;;;;;5057887;28;20055;-45
2022/03/23 06:59:00;;;;;;;12.45;9.43;;;10.80;62.00;;;;;;5057903;28;20021;-47
2022/03/23 07:01:26;;;;;;;13.60;9.25;;;10.80;62.10;;;;;;5058009;28;20064;-45
2022/03/23 07:03:52;;;;;;;12.18;8.88;;;10.80;62.00;;;;;;5057672;28;20032;-46
2022/03/23 07:06:18;;;;;;;13.55;9.35;;;10.80;61.80;;;;;;5057934;28;20088;-46
2022/03/23 07:11:29;;;;;;;;;;;10.80;61.90;;;;;;5057990;28;20511;-47
2022/03/23 07:13:55;;;;;;;12.50;8.38;;;10.80;61.50;;;;;;5057555;28;20389;-46
2022/03/23 07:16:21;;;;;;;11.18;9.13;;;10.80;62.00;;;;;;5057797;28;20110;-46
2022/03/23 07:18:47;;;;;;;13.48;9.85;;;10.80;61.80;;;;;;5057673;28;20032;-46
2022/03/23 07:21:12;;;;;;;12.10;9.10;;;10.80;61.30;;;;;;5057795;28;20025;-46
2022/03/23 07:23:39;;;;;;;11.63;8.85;;;10.80;61.60;;;;;;5057919;28;20481;-48
2022/03/23 07:26:06;;;;;;;13.98;9.25;;;10.80;61.90;;;;;;5057251;28;20456;-46
2022/03/23 07:28:32;;;;;;;13.75;9.73;;;10.80;61.60;;;;;;5057427;28;20090;-48
2022/03/23 07:30:59;;;;;;;11.90;8.27;;;10.80;61.50;;;;;;5057267;28;20476;-48
2022/03/23 07:33:25;;;;;;;12.98;8.27;;;10.90;61.20;;;;;;5057627;28;20032;-46
2022/03/23 07:35:51;;;;;;;16.95;9.82;;;10.90;61.80;;;;;;5057380;28;20029;-45
2022/03/23 07:38:17;;;;;;;16.48;9.38;;;10.90;61.40;;;;;;5057567;28;20017;-45
2022/03/23 07:40:43;;;;;;;13.07;8.82;;;11.00;61.40;;;;;;5057520;28;20132;-46
2022/03/23 07:43:09;;;;;;;13.73;8.63;;;11.00;61.30;;;;;;5057533;28;20131;-46
2022/03/23 07:45:35;;;;;;;13.02;8.77;;;11.00;61.40;;;;;;5057597;28;20435;-47
2022/03/23 07:48:01;;;;;;;11.80;8.27;;;11.10;61.20;;;;;;5057718;28;20049;-46
2022/03/23 07:50:27;;;;;;;11.90;8.35;;;11.10;61.10;;;;;;5057560;28;20469;-47
2022/03/23 07:52:53;;;;;;;12.10;8.95;;;11.10;61.30;;;;;;5057408;28;20035;-46
2022/03/23 07:55:19;;;;;;;13.32;8.80;;;11.10;61.00;;;;;;5057216;28;20492;-50
2022/03/23 07:57:45;;;;;;;11.85;8.55;;;11.20;60.70;;;;;;5055725;28;20037;-52
2022/03/23 08:00:11;;;;;;;11.77;8.35;;;11.20;60.70;;;;;;5057327;28;20021;-46
2022/03/23 08:02:37;;;;;;;14.05;8.32;;;11.30;60.60;;;;;;5057252;28;20223;-46
2022/03/23 08:05:04;;;;;;;11.63;8.50;;;11.30;60.50;;;;;;5060983;28;20084;-47
2022/03/23 08:07:30;;;;;;;12.88;9.18;;;11.40;60.80;;;;;;5058022;28;20025;-46
2022/03/23 08:09:56;;;;;;;14.10;9.02;;;11.40;60.50;;;;;;5046183;28;20030;-48
2022/03/23 08:12:22;;;;;;;15.43;8.90;;;11.40;60.60;;;;;;5040939;28;20026;-51
2022/03/23 08:14:48;;;;;;;12.60;9.25;;;11.50;60.60;;;;;;5041036;28;20493;-48
2022/03/23 08:17:14;;;;;;;12.02;8.75;;;11.50;60.20;;;;;;5040561;28;20553;-46
2022/03/23 08:19:40;;;;;;;11.18;8.75;;;11.60;60.30;;;;;;5041231;28;20056;-47
2022/03/23 08:22:06;;;;;;;11.00;8.52;;;11.60;60.10;;;;;;5040720;28;20022;-46
2022/03/23 08:24:32;;;;;;;11.52;8.18;;;11.70;60.30;;;;;;5040384;28;20050;-47
2022/03/23 08:26:59;;;;;;;11.95;8.45;;;11.80;60.30;;;;;;5040655;28;20033;-45
2022/03/23 08:29:25;;;;;;;12.77;7.97;;;11.90;60.00;;;;;;5040429;28;20377;-48
2022/03/23 08:31:53;;;;;;;12.35;8.80;;;12.00;59.80;;;;;;5040462;28;20053;-47
2022/03/23 08:34:19;;;;;;;12.13;8.10;;;12.00;59.90;;;;;;5040607;28;20374;-46
2022/03/23 08:36:45;;;;;;;11.98;8.40;;;12.20;59.70;;;;;;5040364;28;20032;-46
2022/03/23 08:39:11;;;;;;;12.88;7.93;;;12.30;59.90;;;;;;5040367;28;20541;-47
2022/03/23 08:41:36;;;;;;;11.70;8.02;;;12.50;59.50;;;;;;5040347;28;20052;-49
2022/03/23 08:44:03;;;;;;;13.50;8.35;;;12.70;58.70;;;;;;5040486;28;20451;-46
2022/03/23 08:46:29;;;;;;;10.57;8.32;;;12.90;59.20;;;;;;5040278;28;20021;-46
2022/03/23 08:48:55;;;;;;;11.15;8.15;;;13.10;58.40;;;;;;5040463;28;20513;-49
2022/03/23 08:51:21;;;;;;;12.05;8.65;;;13.30;57.20;;;;;;5040214;28;20030;-46
2022/03/23 08:53:47;;;;;;;13.48;9.05;;;13.50;56.30;;;;;;5040540;28;20026;-46
2022/03/23 08:56:13;;;;;;;12.32;8.35;;;13.80;56.90;;;;;;5040099;28;20032;-45
2022/03/23 08:58:47;;;;;;;11.40;8.30;;;14.10;55.10;;;;;;5039529;28;20371;-50
2022/03/23 09:01:14;;;;;;;10.45;7.55;;;14.50;55.50;;;;;;5039501;28;20029;-49
2022/03/23 09:03:41;;;;;;;10.95;7.97;;;15.00;55.10;;;;;;5039719;28;20097;-46
2022/03/23 09:06:06;;;;;;;11.88;8.00;;;15.40;54.50;;;;;;5038899;28;20071;-46
2022/03/23 09:08:32;;;;;;;11.38;8.38;;;15.80;53.80;;;;;;5039379;28;20033;-53
2022/03/23 09:10:59;;;;;;;13.25;7.88;;;16.10;52.10;;;;;;5039816;28;20108;-48
2022/03/23 09:13:25;;;;;;;12.50;8.77;;;16.30;51.80;;;;;;5039560;28;20036;-52
2022/03/23 09:15:51;;;;;;;13.68;9.05;;;16.50;50.70;;;;;;5039522;28;20510;-53
2022/03/23 09:18:16;;;;;;;12.82;8.65;;;16.90;52.80;;;;;;5037824;28;20104;-53
2022/03/23 09:20:42;;;;;;;12.48;8.63;;;17.20;51.20;;;;;;5038864;28;20025;-51
2022/03/23 09:23:09;;;;;;;10.90;7.72;;;17.50;51.50;;;;;;5039106;28;20021;-50
2022/03/23 09:25:35;;;;;;;11.45;7.82;;;17.90;50.90;;;;;;5039009;28;20084;-49
2022/03/23 09:28:03;;;;;;;10.52;8.05;;;18.20;50.70;;;;;;5039326;28;20072;-53
2022/03/23 09:30:29;;;;;;;10.80;7.82;;;18.60;48.40;;;;;;5039088;28;20097;-49
2022/03/23 09:32:55;;;;;;;11.85;8.40;;;18.90;48.20;;;;;;5038990;28;20064;-46
2022/03/23 09:35:20;;;;;;;10.32;8.30;;;19.40;48.00;;;;;;5038822;28;20025;-47
2022/03/23 09:37:49;;;;;;;13.50;8.48;;;19.70;48.20;;;;;;5039133;28;20036;-48
2022/03/23 09:40:18;;;;;;;11.93;7.85;;;20.00;45.50;;;;;;5039044;28;20028;-52
2022/03/23 09:42:45;;;;;;;12.88;8.13;;;20.40;49.00;;;;;;5039113;28;20083;-47
2022/03/23 09:45:19;;;;;;;11.73;8.50;;;20.70;49.20;;;;;;5038875;28;20017;-47
2022/03/23 09:47:45;;;;;;;10.43;8.52;;;20.90;46.30;;;;;;5038808;28;20030;-47
2022/03/23 09:50:11;;;;;;;10.98;7.55;;;21.30;49.20;;;;;;5038973;28;20491;-47
2022/03/23 09:52:38;;;;;;;10.27;8.15;;;21.70;46.00;;;;;;5038453;28;20032;-52
2022/03/23 09:55:05;;;;;;;11.48;8.18;;;22.00;47.70;;;;;;5038514;28;20053;-51
2022/03/23 09:57:31;;;;;;;10.75;7.97;;;22.30;47.30;;;;;;5038728;28;20025;-52
2022/03/23 09:59:57;;;;;;;11.80;9.00;;;22.60;43.60;;;;;;5038638;28;20040;-47
2022/03/23 10:02:41;;;;;;;9.85;7.63;;;22.90;44.00;;;;;;5038454;28;20079;-48
2022/03/23 10:05:25;;;;;;;11.00;8.00;;;23.10;43.60;;;;;;5038529;28;20025;-50
2022/03/23 10:08:27;;;;;;;10.15;7.43;;;23.40;40.80;;;;;;5038574;28;20032;-49
2022/03/23 10:11:12;;;;;;;10.95;7.70;;;23.70;44.40;;;;;;5038800;28;20026;-48
2022/03/23 10:13:38;;;;;;;8.98;7.40;;;23.90;39.40;;;;;;5038353;28;20037;-51
2022/03/23 10:16:26;;;;;;;10.55;7.95;;;24.20;37.90;;;;;;5038367;28;20045;-52
2022/03/23 10:18:59;;;;;;;9.63;7.38;;;24.40;41.50;;;;;;5038252;28;20025;-50
2022/03/23 10:21:27;;;;;;;9.25;7.25;;;24.70;40.00;;;;;;5038238;28;20021;-53
2022/03/23 10:24:02;;;;;;;9.50;7.22;;;24.90;38.00;;;;;;5038001;28;20029;-54
2022/03/23 10:26:30;;;;;;;11.10;7.97;;;25.20;37.10;;;;;;5037926;28;20057;-51
2022/03/23 10:28:57;;;;;;;8.27;7.13;;;25.50;38.70;;;;;;5038489;28;20100;-55
2022/03/23 10:31:25;;;;;;;8.80;7.53;;;25.70;38.50;;;;;;5038398;28;20090;-53
2022/03/23 10:34:07;;;;;;;10.20;7.57;;;26.00;37.40;;;;;;5037700;28;20462;-50
2022/03/23 10:36:51;;;;;;;10.73;7.57;;;26.20;34.60;;;;;;5037666;28;20039;-53
2022/03/23 10:39:18;;;;;;;18.95;8.18;;;26.30;37.60;;;;;;5037897;28;20040;-50
2022/03/23 10:41:56;;;;;;;10.50;8.30;;;26.00;36.50;;;;;;5037978;28;20056;-55
2022/03/23 10:44:22;;;;;;;11.27;7.82;;;25.60;35.80;;;;;;5038106;28;20017;-53
2022/03/23 10:46:48;;;;;;;11.13;7.90;;;25.30;35.70;;;;;;5037734;28;20022;-54
2022/03/23 10:49:15;;;;;;;10.55;8.10;;;25.10;35.80;;;;;;5037614;28;20024;-51
2022/03/23 10:51:42;;;;;;;13.40;8.40;;;24.70;34.80;;;;;;5037805;28;20025;-54
2022/03/23 10:54:15;;;;;;;10.52;8.50;;;24.30;36.50;;;;;;5037767;28;20155;-54
2022/03/23 10:56:42;;;;;;;14.40;7.67;;;24.20;37.20;;;;;;5037773;28;20099;-53
2022/03/23 10:59:25;;;;;;;12.70;7.70;;;24.40;36.00;;;;;;5037450;28;20026;-54
2022/03/23 11:02:10;;;;;;;14.23;8.35;;;24.90;36.90;;;;;;5037266;28;20071;-52
2022/03/23 11:04:52;;;;;;;10.25;7.38;;;25.10;36.30;;;;;;5037654;28;20036;-53
2022/03/23 11:07:35;;;;;;;10.50;7.60;;;25.30;36.60;;;;;;5037708;28;20041;-54
2022/03/23 11:15:49;;;;;;;10.70;7.78;;;25.30;34.50;;;;;;5037488;28;20071;-55
2022/03/23 11:18:19;;;;;;;12.85;8.07;;;25.00;33.50;;;;;;5037234;28;20026;-55
2022/03/23 11:20:53;;;;;;;11.10;7.85;;;24.90;35.10;;;;;;5037436;28;20036;-53
2022/03/23 11:23:26;;;;;;;11.45;7.80;;;24.60;35.00;;;;;;5037419;28;20446;-55
2022/03/23 11:25:59;;;;;;;9.55;7.68;;;24.20;33.90;;;;;;5037458;28;20038;-55
2022/03/23 11:28:26;;;;;;;11.20;8.10;;;24.10;34.60;;;;;;5036965;28;20553;-54
2022/03/23 11:30:52;;;;;;;12.98;8.10;;;24.00;36.00;;;;;;5037123;28;20056;-55
2022/03/23 11:33:21;;;;;;;11.23;7.88;;;23.80;34.40;;;;;;5037426;28;20026;-51
2022/03/23 11:35:48;;;;;;;11.70;8.07;;;23.60;34.70;;;;;;5037087;28;20037;-53
2022/03/23 11:38:17;;;;;;;10.05;7.72;;;23.60;35.40;;;;;;5039608;28;20026;-53
2022/03/23 11:40:44;;;;;;;11.85;7.35;;;23.90;35.50;;;;;;5040897;28;20362;-53
2022/03/23 11:43:12;;;;;;;11.82;8.32;;;24.00;35.20;;;;;;5041006;28;20473;-54
2022/03/23 11:45:39;;;;;;;10.32;7.60;;;24.10;35.20;;;;;;5039760;28;20028;-54
2022/03/23 11:48:26;;;;;;;12.65;8.60;;;24.30;34.20;;;;;;5041203;28;20052;-53
2022/03/23 11:51:10;;;;;;;10.15;7.82;;;24.30;31.90;;;;;;5040690;28;20103;-54
2022/03/23 11:54:01;;;;;;;10.50;7.80;;;24.20;33.60;;;;;;5041052;28;20026;-54
2022/03/23 11:56:59;;;;;;;11.68;7.65;;;24.10;32.30;;;;;;5041005;28;20087;-51
2022/03/23 11:59:27;;;;;;;11.57;7.93;;;23.70;33.90;;;;;;5039625;28;20497;-53
2022/03/23 12:01:54;;;;;;;10.98;7.93;;;23.70;33.10;;;;;;5040835;28;20030;-54
2022/03/23 12:04:24;;;;;;;10.52;7.72;;;23.60;33.50;;;;;;5040595;28;20100;-54
2022/03/23 12:06:59;;;;;;;10.60;7.93;;;23.60;34.40;;;;;;5040763;28;20018;-52
2022/03/23 12:09:40;;;;;;;10.77;7.75;;;23.70;34.90;;;;;;5040874;28;20029;-53
2022/03/23 12:12:25;;;;;;;10.70;8.10;;;23.70;33.40;;;;;;5040328;28;20022;-54
2022/03/23 12:14:50;;;;;;;;;;;23.70;33.30;;;;;;5041299;28;20095;-55
2022/03/23 12:17:27;;;;;;;10.43;8.10;;;23.80;33.50;;;;;;5039925;28;19908;-53
2022/03/23 12:20:10;;;;;;;10.45;7.22;;;23.60;33.60;;;;;;5040146;28;20029;-55
2022/03/23 12:23:15;;;;;;;12.05;7.65;;;23.70;34.40;;;;;;5040384;28;20029;-51
2022/03/23 12:26:21;;;;;;;11.07;8.15;;;23.90;34.70;;;;;;5039279;28;20417;-53
2022/03/23 12:29:03;;;;;;;10.93;8.00;;;24.20;32.70;;;;;;5040458;28;20022;-51
2022/03/23 12:31:38;;;;;;;10.73;7.60;;;24.30;32.60;;;;;;5040546;28;20053;-54
2022/03/23 12:34:25;;;;;;;12.00;8.35;;;24.20;33.20;;;;;;5040202;28;20029;-54
2022/03/23 12:36:56;;;;;;;9.77;7.40;;;24.60;31.20;;;;;;5039774;28;20108;-53
2022/03/23 12:39:35;;;;;;;13.15;8.57;;;24.80;32.90;;;;;;5040266;28;20028;-54
2022/03/23 12:42:31;;;;;;;9.50;7.93;;;25.00;31.50;;;;;;5040172;28;20488;-52
2022/03/23 12:45:03;;;;;;;13.55;8.43;;;25.20;32.60;;;;;;5039502;28;20028;-51
2022/03/23 12:47:31;;;;;;;9.95;7.80;;;25.40;31.80;;;;;;5040075;28;20029;-51
2022/03/23 12:58:24;;;;;;;9.23;7.00;;;26.00;31.20;;;;;;5039827;28;20117;-53
2022/03/23 13:00:54;;;;;;;12.02;7.53;;;26.30;33.00;;;;;;5039751;28;20020;-54
2022/03/23 13:03:19;;;;;;;9.68;8.00;;;26.60;29.30;;;;;;5039764;28;20030;-56
2022/03/23 13:05:54;;;;;;;10.30;7.82;;;26.40;30.10;;;;;;5039444;28;20033;-55
2022/03/23 13:08:35;;;;;;;10.65;7.70;;;26.00;28.40;;;;;;5039347;28;20087;-53